Time;durP1;ratioP1;P1;durP2;ratioP2;P2;SDS_P1;SDS_P2;PMS_P1;PMS_P2;Temp;Humidity;BMP_temperature;BMP_pressure;BME280_temperature;BME280_humidity;BME280_pressure;Samples;Min_cycle;Max_cycle;Signal;HPM_P1;HPM_P2
2022/12/03 00:00:59;;;;;;;45.78;22.02;;;3.30;99.90;;;;;;5030618;28;20084;-38
2022/12/03 00:03:26;;;;;;;43.58;23.67;;;3.30;99.90;;;;;;5002476;28;20081;-39
2022/12/03 00:05:52;;;;;;;46.17;23.30;;;3.30;99.90;;;;;;5011044;28;20150;-38
2022/12/03 00:08:20;;;;;;;42.47;21.58;;;3.30;99.90;;;;;;5031150;28;20077;-38
2022/12/03 00:10:47;;;;;;;43.17;22.33;;;3.30;99.90;;;;;;5007866;28;20080;-39
2022/12/03 00:13:14;;;;;;;46.33;22.45;;;3.30;99.90;;;;;;5000342;28;20081;-39
2022/12/03 00:15:41;;;;;;;44.00;23.20;;;3.30;99.90;;;;;;4995794;28;20050;-40
2022/12/03 00:18:07;;;;;;;42.83;22.63;;;3.30;99.90;;;;;;5025214;28;20081;-38
2022/12/03 00:20:34;;;;;;;46.05;23.42;;;3.30;99.90;;;;;;5004931;28;20568;-37
2022/12/03 00:23:01;;;;;;;41.15;22.17;;;3.30;99.90;;;;;;5027222;28;20580;-39
2022/12/03 00:25:29;;;;;;;48.10;23.67;;;3.40;99.90;;;;;;5024402;28;20071;-38
2022/12/03 00:27:56;;;;;;;47.33;23.48;;;3.30;99.90;;;;;;5030402;28;20053;-38
2022/12/03 00:30:23;;;;;;;46.28;22.55;;;3.30;99.90;;;;;;5024450;28;20413;-38
2022/12/03 00:32:49;;;;;;;49.55;23.67;;;3.30;99.90;;;;;;5003680;28;20147;-37
2022/12/03 00:35:16;;;;;;;46.53;23.85;;;3.30;99.90;;;;;;5030877;28;20128;-38
2022/12/03 00:37:46;;;;;;;52.47;23.02;;;3.30;99.90;;;;;;5030362;28;20493;-38
2022/12/03 00:40:13;;;;;;;48.13;22.73;;;3.30;99.90;;;;;;5032834;28;20111;-39
2022/12/03 00:42:41;;;;;;;47.92;23.65;;;3.30;99.90;;;;;;5035643;28;20569;-38
2022/12/03 00:45:08;;;;;;;48.92;22.48;;;3.40;99.90;;;;;;5034929;28;20084;-39
2022/12/03 00:47:37;;;;;;;47.60;23.80;;;3.30;99.90;;;;;;5015409;28;20061;-39
2022/12/03 00:50:04;;;;;;;49.65;24.33;;;3.40;99.90;;;;;;5002545;28;20146;-37
2022/12/03 00:52:31;;;;;;;44.05;22.80;;;3.30;99.90;;;;;;5010140;28;20081;-38
2022/12/03 00:54:57;;;;;;;45.80;23.80;;;3.30;99.90;;;;;;5033599;28;20095;-39
2022/12/03 00:57:24;;;;;;;48.53;23.90;;;3.30;99.90;;;;;;5032467;28;20509;-39
2022/12/03 00:59:52;;;;;;;46.47;22.95;;;3.30;99.90;;;;;;5033088;28;20905;-38
2022/12/03 01:02:19;;;;;;;49.85;23.77;;;3.30;99.90;;;;;;5034537;28;20241;-38
2022/12/03 01:04:46;;;;;;;50.05;23.73;;;3.30;99.90;;;;;;5029362;28;20057;-40
2022/12/03 01:07:13;;;;;;;52.92;25.38;;;3.40;99.90;;;;;;5031483;28;20608;-38
2022/12/03 01:09:40;;;;;;;46.15;23.10;;;3.30;99.90;;;;;;5031722;28;20464;-37
2022/12/03 01:12:06;;;;;;;43.63;22.05;;;3.30;99.90;;;;;;5004715;28;20045;-37
2022/12/03 01:14:33;;;;;;;45.72;23.25;;;3.30;99.90;;;;;;5017213;28;20049;-37
2022/12/03 01:17:01;;;;;;;46.70;21.85;;;3.40;99.90;;;;;;5000740;28;20568;-39
2022/12/03 01:19:28;;;;;;;43.00;21.75;;;3.40;99.90;;;;;;5006655;28;20112;-38
2022/12/03 01:21:55;;;;;;;41.85;22.15;;;3.40;99.90;;;;;;5032224;28;20103;-38
2022/12/03 01:24:22;;;;;;;42.97;21.23;;;3.40;99.90;;;;;;5009184;28;20111;-39
2022/12/03 01:26:49;;;;;;;40.95;21.95;;;3.40;99.90;;;;;;5026152;28;20095;-39
2022/12/03 01:29:16;;;;;;;39.58;20.23;;;3.40;99.90;;;;;;5017628;28;20081;-39
2022/12/03 01:34:28;;;;;;;38.47;20.90;;;3.40;99.90;;;;;;5019087;28;20050;-39
2022/12/03 01:36:55;;;;;;;47.58;22.10;;;3.40;99.90;;;;;;5024989;28;20139;-38
2022/12/03 01:39:22;;;;;;;39.40;21.48;;;3.40;99.90;;;;;;5032044;28;20089;-39
2022/12/03 01:41:49;;;;;;;39.38;21.00;;;3.40;99.90;;;;;;5004517;28;20136;-38
2022/12/03 01:44:17;;;;;;;42.85;22.08;;;3.40;99.90;;;;;;5034605;28;20062;-39
2022/12/03 01:46:43;;;;;;;37.92;21.40;;;3.40;99.90;;;;;;5031383;28;20089;-38
2022/12/03 01:49:13;;;;;;;39.58;21.40;;;3.50;99.90;;;;;;5026958;28;20053;-38
2022/12/03 01:51:41;;;;;;;40.55;21.65;;;3.50;99.90;;;;;;5031436;28;20474;-38
2022/12/03 01:54:13;;;;;;;41.50;21.73;;;3.50;99.90;;;;;;5033938;28;20045;-40
2022/12/03 01:56:39;;;;;;;41.67;21.90;;;3.50;99.90;;;;;;5014877;28;20274;-38
2022/12/03 01:59:06;;;;;;;42.63;22.45;;;3.50;99.90;;;;;;5018877;28;20131;-39
2022/12/03 02:01:33;;;;;;;41.20;21.45;;;3.50;99.90;;;;;;5025436;28;20133;-38
2022/12/03 02:04:00;;;;;;;42.15;21.65;;;3.50;99.90;;;;;;5033771;28;20053;-37
2022/12/03 02:06:26;;;;;;;40.25;21.95;;;3.50;99.90;;;;;;5029169;28;20577;-38
2022/12/03 02:08:58;;;;;;;44.70;22.63;;;3.50;99.90;;;;;;5015255;28;20128;-38
2022/12/03 02:11:27;;;;;;;42.40;23.27;;;3.50;99.90;;;;;;5030909;28;20099;-39
2022/12/03 02:13:55;;;;;;;40.45;21.52;;;3.50;99.90;;;;;;5031319;28;20053;-39
2022/12/03 02:16:21;;;;;;;39.40;21.42;;;3.50;99.90;;;;;;5013668;28;20085;-39
2022/12/03 02:18:48;;;;;;;37.13;21.33;;;3.50;99.90;;;;;;5032818;28;20064;-39
2022/12/03 02:21:17;;;;;;;41.50;22.02;;;3.60;99.90;;;;;;5025924;28;20470;-37
2022/12/03 02:23:47;;;;;;;40.42;21.95;;;3.50;99.90;;;;;;5030340;28;20124;-39
2022/12/03 02:26:15;;;;;;;36.85;20.98;;;3.50;99.90;;;;;;5024850;28;20501;-39
2022/12/03 02:28:42;;;;;;;42.58;22.13;;;3.50;99.90;;;;;;5019187;28;20076;-38
2022/12/03 02:31:09;;;;;;;39.28;22.02;;;3.50;99.90;;;;;;5033594;28;20075;-39
2022/12/03 02:33:36;;;;;;;42.72;23.42;;;3.50;99.90;;;;;;5011335;28;20481;-38
2022/12/03 02:36:02;;;;;;;40.45;21.55;;;3.50;99.90;;;;;;5028385;28;20073;-38
2022/12/03 02:38:29;;;;;;;38.50;21.52;;;3.50;99.90;;;;;;5025870;28;20077;-37
2022/12/03 02:40:58;;;;;;;36.35;20.48;;;3.50;99.90;;;;;;5029618;28;20041;-37
2022/12/03 02:43:25;;;;;;;37.72;21.13;;;3.50;99.90;;;;;;5014638;28;20042;-38
2022/12/03 02:45:52;;;;;;;40.47;21.70;;;3.40;99.90;;;;;;5030998;28;20076;-39
2022/12/03 02:48:20;;;;;;;36.40;20.63;;;3.50;99.90;;;;;;5021528;28;20074;-39
2022/12/03 02:50:50;;;;;;;35.25;20.35;;;3.50;99.90;;;;;;5029920;28;20146;-38
2022/12/03 02:53:17;;;;;;;39.72;21.08;;;3.50;99.90;;;;;;5030565;28;20081;-38
2022/12/03 02:55:44;;;;;;;39.80;21.88;;;3.50;99.90;;;;;;5030595;28;20073;-37
2022/12/03 02:58:11;;;;;;;38.50;21.42;;;3.50;99.90;;;;;;5024339;28;20076;-38
2022/12/03 03:00:39;;;;;;;35.53;20.45;;;3.50;99.90;;;;;;5030729;28;20081;-39
2022/12/03 03:03:06;;;;;;;39.28;21.52;;;3.50;99.90;;;;;;5004227;28;20128;-39
2022/12/03 03:05:33;;;;;;;36.88;20.83;;;3.50;99.90;;;;;;5028312;28;20472;-40
2022/12/03 03:08:00;;;;;;;36.85;21.20;;;3.50;99.90;;;;;;5028861;28;20129;-39
2022/12/03 03:10:27;;;;;;;43.97;21.85;;;3.50;99.90;;;;;;5031800;28;20107;-39
2022/12/03 03:12:54;;;;;;;36.13;20.38;;;3.50;99.90;;;;;;5032480;28;20058;-39
2022/12/03 03:15:21;;;;;;;35.53;19.98;;;3.50;99.90;;;;;;5032377;28;20112;-38
2022/12/03 03:17:49;;;;;;;35.35;19.75;;;3.50;99.90;;;;;;5025833;28;20108;-39
2022/12/03 03:20:16;;;;;;;40.80;20.85;;;3.50;99.90;;;;;;5027708;28;20414;-37
2022/12/03 03:22:43;;;;;;;38.28;21.15;;;3.50;99.90;;;;;;5012732;28;20080;-39
2022/12/03 03:25:11;;;;;;;38.80;21.67;;;3.40;99.90;;;;;;5015871;28;20085;-39
2022/12/03 03:27:38;;;;;;;37.47;20.75;;;3.40;99.90;;;;;;5026468;28;20084;-39
2022/12/03 03:30:06;;;;;;;39.67;22.20;;;3.40;99.90;;;;;;5027221;28;20049;-40
2022/12/03 03:32:33;;;;;;;37.53;20.60;;;3.40;99.90;;;;;;5016573;28;20041;-38
2022/12/03 03:35:01;;;;;;;36.45;21.23;;;3.40;99.90;;;;;;5011310;28;20558;-38
2022/12/03 03:37:28;;;;;;;38.72;21.73;;;3.50;99.90;;;;;;5031981;28;20096;-39
2022/12/03 03:39:54;;;;;;;38.33;21.20;;;3.40;99.90;;;;;;5031863;28;20494;-39
2022/12/03 03:42:21;;;;;;;38.72;21.83;;;3.40;99.90;;;;;;5013450;28;20129;-39
2022/12/03 03:44:48;;;;;;;38.60;21.70;;;3.50;99.90;;;;;;5031076;28;20111;-39
2022/12/03 03:47:15;;;;;;;42.35;21.50;;;3.40;99.90;;;;;;5030114;28;20045;-38
2022/12/03 03:49:42;;;;;;;39.75;21.85;;;3.40;99.90;;;;;;5014522;28;20073;-38
2022/12/03 03:52:10;;;;;;;39.22;21.70;;;3.40;99.90;;;;;;5030402;28;20163;-37
2022/12/03 03:54:37;;;;;;;38.75;22.00;;;3.40;99.90;;;;;;5023071;28;20096;-39
2022/12/03 03:57:04;;;;;;;40.38;21.65;;;3.40;99.90;;;;;;5013986;28;20125;-38
2022/12/03 03:59:30;;;;;;;38.42;21.15;;;3.40;99.90;;;;;;5014017;28;20053;-38
2022/12/03 04:01:57;;;;;;;39.38;21.75;;;3.40;99.90;;;;;;4995329;28;20165;-39
2022/12/03 04:04:25;;;;;;;41.35;21.85;;;3.40;99.90;;;;;;5029356;28;20099;-39
2022/12/03 04:06:52;;;;;;;42.08;21.80;;;3.40;99.90;;;;;;5031755;28;20045;-39
2022/12/03 04:09:20;;;;;;;40.13;22.10;;;3.40;99.90;;;;;;5028166;28;20046;-39
2022/12/03 04:14:31;;;;;;;40.90;21.77;;;3.40;99.90;;;;;;5034744;28;20761;-37
2022/12/03 04:16:58;;;;;;;39.25;21.75;;;3.30;99.90;;;;;;5035385;28;20532;-39
2022/12/03 04:19:24;;;;;;;38.50;21.67;;;3.30;99.90;;;;;;5035057;28;20085;-39
2022/12/03 04:24:37;;;;;;;38.72;21.25;;;3.30;99.90;;;;;;5034588;28;20050;-37
2022/12/03 04:29:48;;;;;;;38.22;21.58;;;3.30;99.90;;;;;;5030408;28;20070;-39
2022/12/03 04:37:43;;;;;;;35.15;19.67;;;3.20;99.90;;;;;;5035941;28;20050;-38
2022/12/03 04:42:53;;;;;;;33.17;19.08;;;3.20;99.90;;;;;;5016473;28;20054;-39
2022/12/03 04:45:19;;;;;;;37.38;21.08;;;3.20;99.90;;;;;;5014641;28;20050;-39
2022/12/03 04:47:46;;;;;;;35.58;19.83;;;3.20;99.90;;;;;;5021118;28;20049;-38
2022/12/03 04:50:13;;;;;;;37.22;20.73;;;3.20;99.90;;;;;;5034820;28;20439;-38
2022/12/03 04:52:40;;;;;;;36.42;20.27;;;3.20;99.90;;;;;;5035578;28;20501;-39
2022/12/03 04:55:07;;;;;;;35.58;20.42;;;3.20;99.90;;;;;;5011467;28;20125;-39
2022/12/03 04:57:35;;;;;;;37.58;20.88;;;3.20;99.90;;;;;;5012496;28;20088;-39
2022/12/03 05:00:03;;;;;;;39.17;20.60;;;3.20;99.90;;;;;;5002547;28;20180;-38
2022/12/03 05:02:29;;;;;;;33.78;19.77;;;3.10;99.90;;;;;;5033719;28;20053;-40
2022/12/03 05:04:56;;;;;;;35.38;19.90;;;3.20;99.90;;;;;;5017341;28;20053;-39
2022/12/03 05:07:23;;;;;;;32.47;19.02;;;3.20;99.90;;;;;;5023738;28;20112;-38
2022/12/03 05:09:50;;;;;;;33.42;19.90;;;3.10;99.90;;;;;;5023488;28;20470;-38
2022/12/03 05:12:16;;;;;;;35.85;19.35;;;3.20;99.90;;;;;;5017741;28;20533;-39
2022/12/03 05:14:44;;;;;;;35.08;19.65;;;3.10;99.90;;;;;;5035090;28;20470;-39
2022/12/03 05:17:11;;;;;;;34.28;19.65;;;3.10;99.90;;;;;;5009183;28;20085;-40
2022/12/03 05:22:22;;;;;;;36.47;20.65;;;3.10;99.90;;;;;;5033351;28;20045;-38
2022/12/03 05:24:49;;;;;;;33.08;19.33;;;3.10;99.90;;;;;;5029523;28;20045;-39
2022/12/03 05:27:16;;;;;;;36.22;18.75;;;3.10;99.90;;;;;;5032698;28;20042;-38
2022/12/03 05:29:44;;;;;;;38.20;20.73;;;3.10;99.90;;;;;;5013085;28;20089;-38
2022/12/03 05:32:11;;;;;;;33.67;19.48;;;3.10;99.90;;;;;;5030692;28;20684;-39
2022/12/03 05:34:38;;;;;;;35.50;20.35;;;3.10;99.90;;;;;;5033353;28;20049;-39
2022/12/03 05:37:04;;;;;;;37.30;21.50;;;3.20;99.90;;;;;;5015984;28;20078;-39
2022/12/03 05:39:31;;;;;;;35.10;19.50;;;3.10;99.90;;;;;;5003250;28;20693;-39
2022/12/03 05:44:43;;;;;;;33.47;19.15;;;3.00;99.90;;;;;;5025173;28;20493;-39
2022/12/03 05:47:10;;;;;;;35.92;19.50;;;3.10;99.90;;;;;;5015739;28;20085;-39
2022/12/03 05:49:37;;;;;;;32.40;18.80;;;3.10;99.90;;;;;;5032198;28;20119;-39
2022/12/03 05:52:04;;;;;;;31.25;18.60;;;3.10;99.90;;;;;;5014664;28;20053;-38
2022/12/03 05:54:30;;;;;;;35.78;20.17;;;3.10;99.90;;;;;;5027762;28;20453;-38
2022/12/03 05:56:57;;;;;;;34.65;20.05;;;3.10;99.90;;;;;;5041478;28;20124;-39
2022/12/03 05:59:24;;;;;;;32.30;18.67;;;3.10;99.90;;;;;;5029377;28;20058;-39
2022/12/03 06:01:52;;;;;;;33.92;19.98;;;3.10;99.90;;;;;;5007094;28;20049;-39
2022/12/03 06:04:19;;;;;;;34.42;20.15;;;3.10;99.90;;;;;;5014297;28;20073;-40
2022/12/03 06:06:46;;;;;;;34.42;19.45;;;3.10;99.90;;;;;;5031804;28;20092;-40
2022/12/03 06:09:12;;;;;;;35.53;19.35;;;3.10;99.90;;;;;;5033419;28;20049;-39
2022/12/03 06:11:40;;;;;;;35.50;20.58;;;3.10;99.90;;;;;;5011265;28;20157;-40
2022/12/03 06:14:06;;;;;;;35.35;18.70;;;3.10;99.90;;;;;;5016048;28;20049;-39
2022/12/03 06:16:33;;;;;;;36.05;19.70;;;3.00;99.90;;;;;;5032365;28;20097;-39
2022/12/03 06:19:01;;;;;;;33.88;19.80;;;3.00;99.90;;;;;;5034067;28;20132;-39
2022/12/03 06:21:28;;;;;;;35.03;20.10;;;3.10;99.90;;;;;;5022338;28;20104;-39
2022/12/03 06:23:55;;;;;;;38.20;20.20;;;3.00;99.90;;;;;;5008817;28;20148;-40
2022/12/03 06:26:22;;;;;;;36.03;19.15;;;3.10;99.90;;;;;;5016320;28;20084;-39
2022/12/03 06:28:49;;;;;;;36.97;19.95;;;3.10;99.90;;;;;;5029595;28;20142;-39
2022/12/03 06:31:15;;;;;;;37.08;20.00;;;3.00;99.90;;;;;;5031945;28;20410;-40
2022/12/03 06:33:42;;;;;;;35.92;20.48;;;3.00;99.90;;;;;;5033680;28;20076;-39
2022/12/03 06:36:10;;;;;;;35.80;20.13;;;3.00;99.90;;;;;;5031780;28;20077;-40
2022/12/03 06:38:37;;;;;;;33.33;18.75;;;3.00;99.90;;;;;;5028634;28;20064;-39
2022/12/03 06:41:04;;;;;;;36.42;20.02;;;3.00;99.90;;;;;;5029386;28;20045;-37
2022/12/03 06:43:36;;;;;;;33.95;19.60;;;3.00;99.90;;;;;;5017579;28;20045;-40
2022/12/03 06:46:03;;;;;;;35.30;20.20;;;3.00;99.90;;;;;;5030645;28;20151;-39
2022/12/03 06:48:30;;;;;;;36.80;19.63;;;3.00;99.90;;;;;;5005730;28;20135;-39
2022/12/03 06:50:56;;;;;;;34.53;19.95;;;3.00;99.90;;;;;;5032076;28;20493;-39
2022/12/03 06:53:28;;;;;;;33.13;18.45;;;2.90;99.90;;;;;;5031489;28;20049;-39
2022/12/03 06:55:54;;;;;;;33.30;19.40;;;3.00;99.90;;;;;;5024566;28;20130;-38
2022/12/03 06:58:21;;;;;;;39.05;20.40;;;2.90;99.90;;;;;;5019442;28;20111;-39
2022/12/03 07:00:48;;;;;;;38.40;20.15;;;2.90;99.90;;;;;;5021660;28;20092;-38
2022/12/03 07:03:15;;;;;;;37.25;20.73;;;2.90;99.90;;;;;;5025686;28;20092;-39
2022/12/03 07:05:41;;;;;;;39.05;21.75;;;2.90;99.90;;;;;;5028843;28;20099;-39
2022/12/03 07:08:08;;;;;;;39.53;21.45;;;2.90;99.90;;;;;;5026140;28;20080;-38
2022/12/03 07:10:36;;;;;;;38.85;21.15;;;2.90;99.90;;;;;;5010226;28;20132;-38
2022/12/03 07:13:06;;;;;;;37.65;19.33;;;2.90;99.90;;;;;;5029514;28;20069;-40
2022/12/03 07:15:33;;;;;;;38.05;20.80;;;2.90;99.90;;;;;;5010504;28;20081;-40
2022/12/03 07:17:59;;;;;;;36.42;19.83;;;2.80;99.90;;;;;;5028145;28;20081;-37
2022/12/03 07:20:26;;;;;;;32.13;19.45;;;2.80;99.90;;;;;;5012839;28;20086;-38
2022/12/03 07:22:53;;;;;;;38.17;19.85;;;2.90;99.90;;;;;;5030175;28;20795;-39
2022/12/03 07:25:20;;;;;;;38.20;19.08;;;2.80;99.90;;;;;;4997207;28;20053;-37
2022/12/03 07:27:48;;;;;;;39.33;20.45;;;2.80;99.90;;;;;;5030135;28;20099;-38
2022/12/03 07:30:15;;;;;;;41.15;21.13;;;2.80;99.90;;;;;;5017302;28;20476;-39
2022/12/03 07:32:42;;;;;;;36.83;21.02;;;2.80;99.90;;;;;;5000771;28;20363;-38
2022/12/03 07:35:09;;;;;;;40.90;20.00;;;2.80;99.90;;;;;;5003503;28;20486;-39
2022/12/03 07:37:36;;;;;;;40.70;21.67;;;2.80;99.90;;;;;;5028609;28;20121;-39
2022/12/03 07:40:03;;;;;;;45.92;23.85;;;2.80;99.90;;;;;;5030104;28;20557;-38
2022/12/03 07:42:30;;;;;;;39.53;21.83;;;2.80;99.90;;;;;;5001201;28;20085;-38
2022/12/03 07:44:58;;;;;;;41.28;21.92;;;2.90;99.90;;;;;;5010690;28;20053;-37
2022/12/03 07:47:24;;;;;;;42.60;22.17;;;2.90;99.90;;;;;;5010279;28;20141;-39
2022/12/03 07:49:51;;;;;;;47.75;23.33;;;2.80;99.90;;;;;;5027189;28;20128;-37
2022/12/03 07:52:18;;;;;;;45.10;22.90;;;2.80;99.90;;;;;;5031204;28;20089;-37
2022/12/03 07:54:45;;;;;;;44.58;23.13;;;2.80;99.90;;;;;;5026497;28;20100;-38
2022/12/03 07:57:12;;;;;;;43.20;23.17;;;2.80;99.90;;;;;;5002428;28;20162;-39
2022/12/03 07:59:38;;;;;;;48.28;23.67;;;2.80;99.90;;;;;;5025436;28;20077;-38
2022/12/03 08:02:06;;;;;;;47.28;22.95;;;2.80;99.90;;;;;;5017521;28;20140;-38
2022/12/03 08:04:33;;;;;;;46.58;23.30;;;2.80;99.90;;;;;;5035697;28;20076;-38
2022/12/03 08:07:00;;;;;;;45.00;24.40;;;2.70;99.90;;;;;;5033648;28;20073;-38
2022/12/03 08:09:27;;;;;;;47.00;24.58;;;2.80;99.90;;;;;;5024533;28;20508;-38
2022/12/03 08:11:53;;;;;;;44.47;24.08;;;2.80;99.90;;;;;;5035792;28;20107;-38
2022/12/03 08:14:21;;;;;;;45.13;22.83;;;2.80;99.90;;;;;;5007222;28;20053;-38
2022/12/03 08:16:47;;;;;;;49.85;24.30;;;2.70;99.90;;;;;;4998847;28;20141;-38
2022/12/03 08:19:16;;;;;;;52.30;26.55;;;2.80;99.90;;;;;;5034834;28;20050;-39
2022/12/03 08:21:43;;;;;;;49.22;24.65;;;2.70;99.90;;;;;;5035566;28;20535;-38
2022/12/03 08:24:13;;;;;;;53.78;25.55;;;2.70;99.90;;;;;;5034270;28;20195;-37
2022/12/03 08:26:40;;;;;;;48.72;26.45;;;2.70;99.90;;;;;;5011372;28;20042;-38
2022/12/03 08:29:08;;;;;;;50.50;27.52;;;2.70;99.90;;;;;;5017091;28;20132;-38
2022/12/03 08:31:35;;;;;;;55.63;28.80;;;2.70;99.90;;;;;;5019509;28;20050;-38
2022/12/03 08:34:17;;;;;;;57.10;29.83;;;2.70;99.90;;;;;;5014789;28;20338;-38
2022/12/03 08:36:43;;;;;;;64.95;30.48;;;2.70;99.90;;;;;;5034500;28;20050;-37
2022/12/03 08:39:27;;;;;;;57.10;30.13;;;2.70;99.90;;;;;;5034365;28;20539;-38
2022/12/03 08:44:39;;;;;;;62.38;31.10;;;2.70;99.90;;;;;;5026782;28;20050;-38
2022/12/03 08:47:11;;;;;;;58.03;29.75;;;2.80;99.90;;;;;;5035367;28;20176;-39
2022/12/03 08:49:40;;;;;;;58.03;29.77;;;2.70;99.90;;;;;;5005463;28;20104;-38
2022/12/03 08:52:11;;;;;;;60.08;28.58;;;2.70;99.90;;;;;;5015900;28;20049;-38
2022/12/03 08:54:38;;;;;;;77.15;32.97;;;2.70;99.90;;;;;;5015812;28;20089;-38
2022/12/03 08:57:16;;;;;;;61.00;31.33;;;2.70;99.90;;;;;;4998874;28;20136;-39
2022/12/03 08:59:43;;;;;;;64.93;29.75;;;2.70;99.90;;;;;;5011039;28;20446;-39
2022/12/03 09:02:10;;;;;;;58.67;30.55;;;2.60;99.90;;;;;;5035398;28;20450;-38
2022/12/03 09:04:40;;;;;;;64.00;30.77;;;2.70;99.90;;;;;;5033905;28;20505;-37
2022/12/03 09:07:06;;;;;;;59.85;29.83;;;2.70;99.90;;;;;;5033103;28;20397;-38
2022/12/03 09:09:33;;;;;;;65.80;31.15;;;2.70;99.90;;;;;;5012153;28;20085;-38
2022/12/03 09:12:01;;;;;;;65.10;31.45;;;2.70;99.90;;;;;;5008451;28;20144;-38
2022/12/03 09:14:28;;;;;;;60.85;30.17;;;2.70;99.90;;;;;;5007454;28;20058;-39
2022/12/03 09:16:55;;;;;;;63.15;31.20;;;2.70;99.90;;;;;;5009135;28;20457;-39
2022/12/03 09:19:22;;;;;;;57.35;30.33;;;2.70;99.90;;;;;;5033294;28;20115;-39
2022/12/03 09:21:50;;;;;;;66.18;32.13;;;2.60;99.90;;;;;;5028959;28;20061;-38
2022/12/03 09:24:17;;;;;;;64.80;32.53;;;2.60;99.90;;;;;;5031026;28;20052;-38
2022/12/03 09:26:43;;;;;;;66.05;32.22;;;2.60;99.90;;;;;;5011828;28;20140;-38
2022/12/03 09:29:10;;;;;;;62.17;31.52;;;2.60;99.90;;;;;;5032674;28;20084;-39
2022/12/03 09:31:37;;;;;;;58.10;31.10;;;2.60;99.90;;;;;;5023699;28;20142;-39
2022/12/03 09:34:04;;;;;;;61.90;30.58;;;2.60;99.90;;;;;;5022291;28;20152;-38
2022/12/03 09:36:31;;;;;;;65.07;32.30;;;2.60;99.90;;;;;;5023713;28;20091;-39
2022/12/03 09:38:59;;;;;;;66.70;32.33;;;2.60;99.90;;;;;;5004132;28;20077;-39
2022/12/03 09:41:26;;;;;;;67.75;32.25;;;2.60;99.90;;;;;;5028700;28;20058;-39
2022/12/03 09:43:52;;;;;;;65.20;32.35;;;2.60;99.90;;;;;;5011546;28;20069;-39
2022/12/03 09:46:19;;;;;;;60.88;31.05;;;2.60;99.90;;;;;;5025498;28;20050;-38
2022/12/03 09:48:46;;;;;;;61.08;30.35;;;2.70;99.90;;;;;;5007909;28;20097;-38
2022/12/03 09:51:13;;;;;;;72.57;32.05;;;2.70;99.90;;;;;;5031224;28;20053;-38
2022/12/03 09:53:40;;;;;;;71.47;31.98;;;2.70;99.90;;;;;;5025926;28;20077;-39
2022/12/03 09:56:12;;;;;;;66.35;31.48;;;2.70;99.90;;;;;;5029835;28;20559;-39
2022/12/03 09:58:38;;;;;;;;;;;2.70;99.90;;;;;;5028442;28;20080;-39
2022/12/03 10:01:10;;;;;;;82.20;31.95;;;2.80;99.90;;;;;;4999912;28;20342;-39
2022/12/03 10:03:37;;;;;;;131.73;36.22;;;2.70;99.90;;;;;;5005392;28;20140;-39
2022/12/03 10:06:04;;;;;;;65.63;30.50;;;2.70;99.90;;;;;;5029162;28;20053;-39
2022/12/03 10:08:31;;;;;;;64.72;31.30;;;2.80;99.90;;;;;;5026240;28;20077;-39
2022/12/03 10:10:57;;;;;;;69.68;31.83;;;2.80;99.90;;;;;;5004077;28;20131;-38
2022/12/03 10:13:26;;;;;;;82.68;31.33;;;2.80;99.90;;;;;;5021964;28;20061;-39
2022/12/03 10:15:54;;;;;;;60.65;30.63;;;2.90;99.90;;;;;;5022513;28;20140;-39
2022/12/03 10:18:22;;;;;;;58.90;30.17;;;2.80;99.90;;;;;;5014737;28;20081;-39
2022/12/03 10:20:49;;;;;;;58.67;29.27;;;2.80;99.90;;;;;;5028295;28;20138;-40
2022/12/03 10:23:21;;;;;;;61.70;30.85;;;2.80;99.90;;;;;;5020249;28;20549;-39
2022/12/03 10:25:52;;;;;;;61.67;30.20;;;2.80;99.90;;;;;;5024887;28;20049;-39
2022/12/03 10:28:31;;;;;;;63.40;32.10;;;2.90;99.90;;;;;;5021157;28;20465;-38
2022/12/03 10:30:58;;;;;;;67.22;30.52;;;2.80;99.90;;;;;;5028140;28;20132;-38
2022/12/03 10:33:29;;;;;;;60.15;30.15;;;2.80;99.90;;;;;;5026315;28;20483;-39
2022/12/03 10:35:56;;;;;;;60.28;31.08;;;2.90;99.90;;;;;;5011809;28;20136;-39
2022/12/03 10:38:23;;;;;;;80.28;31.38;;;2.90;99.90;;;;;;5002971;28;20056;-39
2022/12/03 10:40:50;;;;;;;59.92;30.13;;;2.90;99.90;;;;;;5018329;28;20564;-38
2022/12/03 10:43:21;;;;;;;59.35;30.15;;;2.90;99.90;;;;;;5006947;28;20493;-38
2022/12/03 10:45:49;;;;;;;57.03;28.85;;;2.90;99.90;;;;;;5000299;28;20089;-38
2022/12/03 10:48:17;;;;;;;99.13;33.50;;;2.90;99.90;;;;;;5017666;28;20069;-37
2022/12/03 10:50:51;;;;;;;62.03;29.48;;;2.90;99.90;;;;;;5027348;28;20053;-38
2022/12/03 10:53:18;;;;;;;55.13;29.73;;;2.90;99.90;;;;;;5008465;28;20085;-38
2022/12/03 10:55:45;;;;;;;62.00;31.27;;;3.00;99.90;;;;;;5012494;28;20053;-38
2022/12/03 10:58:20;;;;;;;65.43;30.65;;;3.00;99.90;;;;;;5026210;28;20045;-38
2022/12/03 11:00:49;;;;;;;58.60;29.77;;;3.00;99.90;;;;;;5018593;28;20068;-38
2022/12/03 11:03:18;;;;;;;60.33;31.08;;;3.00;99.90;;;;;;5026911;28;20096;-39
2022/12/03 11:05:45;;;;;;;56.88;31.40;;;3.00;99.90;;;;;;5000536;28;20100;-36
2022/12/03 11:08:16;;;;;;;60.35;29.92;;;3.00;99.90;;;;;;5032731;28;20103;-39
2022/12/03 11:10:42;;;;;;;69.25;32.03;;;3.00;99.90;;;;;;4995476;28;20558;-38
2022/12/03 11:13:29;;;;;;;66.18;33.75;;;2.90;99.90;;;;;;4460416;28;15062609;-38
2022/12/03 11:15:57;;;;;;;143.10;35.97;;;2.90;99.90;;;;;;5038396;28;21163;-38
2022/12/03 11:18:57;;;;;;;105.45;35.60;;;2.80;99.90;;;;;;5006189;28;20061;-38
2022/12/03 11:21:24;;;;;;;73.05;32.83;;;2.80;99.90;;;;;;5003761;28;20119;-38
2022/12/03 11:24:17;;;;;;;66.13;32.75;;;2.80;99.90;;;;;;5009786;28;20080;-39
2022/12/03 11:27:17;;;;;;;153.70;39.92;;;2.80;99.90;;;;;;5031109;28;20076;-39
2022/12/03 11:30:02;;;;;;;191.32;43.75;;;2.90;99.90;;;;;;4999151;28;20049;-39
2022/12/03 11:33:00;;;;;;;81.35;32.95;;;2.80;99.90;;;;;;5024926;28;20076;-37
2022/12/03 11:35:27;;;;;;;61.88;29.83;;;2.80;99.90;;;;;;5027799;28;20049;-38
2022/12/03 11:37:54;;;;;;;82.75;32.83;;;2.80;99.90;;;;;;5024994;28;20133;-39
2022/12/03 11:40:29;;;;;;;76.80;31.17;;;2.80;99.90;;;;;;4995814;28;20054;-38
2022/12/03 11:42:56;;;;;;;59.42;29.70;;;2.80;99.90;;;;;;5011056;28;20050;-37
2022/12/03 11:45:29;;;;;;;63.92;35.30;;;2.90;99.90;;;;;;5030547;28;20076;-39
2022/12/03 11:48:09;;;;;;;61.65;31.23;;;2.90;99.90;;;;;;5019880;28;20554;-39
2022/12/03 11:50:37;;;;;;;62.30;32.70;;;2.90;99.90;;;;;;5031868;28;20103;-39
2022/12/03 11:53:12;;;;;;;63.03;31.17;;;2.90;99.90;;;;;;5031047;28;20072;-38
2022/12/03 11:55:39;;;;;;;62.00;34.33;;;3.00;99.90;;;;;;5012146;28;20081;-39
2022/12/03 11:58:15;;;;;;;65.70;33.65;;;3.00;99.90;;;;;;5007090;28;20057;-39
2022/12/03 12:00:48;;;;;;;65.85;36.13;;;3.00;99.90;;;;;;5025347;28;20061;-40
2022/12/03 12:03:22;;;;;;;62.05;32.78;;;3.00;99.90;;;;;;5027872;28;20077;-39
2022/12/03 12:06:02;;;;;;;61.22;32.63;;;3.10;99.90;;;;;;5023165;28;20455;-39
2022/12/03 12:08:29;;;;;;;61.00;32.30;;;3.00;99.90;;;;;;5002928;28;20061;-40
2022/12/03 12:10:56;;;;;;;68.05;35.13;;;3.00;99.90;;;;;;5004679;28;20081;-39
2022/12/03 12:13:50;;;;;;;69.05;34.80;;;3.00;99.90;;;;;;5000476;28;20081;-39
2022/12/03 12:16:41;;;;;;;62.58;33.83;;;3.00;99.90;;;;;;5018127;28;20054;-39
2022/12/03 12:19:28;;;;;;;60.22;32.40;;;2.90;99.90;;;;;;5004528;28;20049;-39
2022/12/03 12:21:55;;;;;;;62.00;32.10;;;2.80;99.90;;;;;;5006039;28;20576;-39
2022/12/03 12:24:30;;;;;;;62.38;32.65;;;2.80;99.90;;;;;;5030297;28;20053;-39
2022/12/03 12:26:57;;;;;;;56.90;31.92;;;2.90;99.90;;;;;;5028055;28;20046;-40
2022/12/03 12:29:24;;;;;;;58.40;32.20;;;3.00;99.90;;;;;;5017053;28;20077;-38
2022/12/03 12:31:51;;;;;;;62.97;33.22;;;3.00;99.90;;;;;;5026462;28;20467;-39
2022/12/03 12:34:17;;;;;;;61.65;32.28;;;3.00;99.90;;;;;;5014285;28;20139;-38
2022/12/03 12:36:46;;;;;;;59.55;32.00;;;3.00;99.90;;;;;;5000890;28;20160;-39
2022/12/03 12:39:13;;;;;;;57.75;31.73;;;3.00;99.90;;;;;;5020581;28;20103;-39
2022/12/03 12:41:40;;;;;;;59.10;31.80;;;3.10;99.90;;;;;;5028833;28;20053;-38
2022/12/03 12:44:09;;;;;;;63.92;32.75;;;3.10;99.90;;;;;;5024955;28;20481;-38
2022/12/03 12:46:36;;;;;;;59.80;32.78;;;3.20;99.90;;;;;;5030434;28;20457;-38
2022/12/03 12:49:08;;;;;;;59.10;31.70;;;3.20;99.90;;;;;;5033095;28;20073;-38
2022/12/03 12:51:35;;;;;;;63.10;34.25;;;3.20;99.90;;;;;;5009286;28;20136;-38
2022/12/03 12:54:05;;;;;;;63.25;33.05;;;3.20;99.90;;;;;;5028882;28;20077;-38
2022/12/03 12:56:32;;;;;;;62.00;32.80;;;3.20;99.90;;;;;;5030254;28;20089;-39
2022/12/03 12:59:09;;;;;;;64.15;34.50;;;3.10;99.90;;;;;;5031236;28;20115;-39
2022/12/03 13:01:36;;;;;;;68.28;34.30;;;3.20;99.90;;;;;;5016270;28;20445;-38
2022/12/03 13:04:06;;;;;;;66.85;36.50;;;3.00;99.90;;;;;;5012320;28;20076;-38
2022/12/03 13:06:34;;;;;;;65.90;35.13;;;3.10;99.90;;;;;;5021590;28;20119;-38
2022/12/03 13:09:00;;;;;;;72.88;36.38;;;3.10;99.90;;;;;;5003490;28;20667;-37